createdAt,value
2019-03-21T00:00:49.515Z,85.67
2019-03-21T00:03:18.050Z,76.80
2019-03-21T00:05:46.519Z,77.03
2019-03-21T00:08:14.868Z,75.23
2019-03-21T00:11:05.090Z,74.87
2019-03-21T00:13:33.450Z,78.20
2019-03-21T00:16:01.969Z,76.50
2019-03-21T00:18:30.343Z,95.40
2019-03-21T00:20:58.740Z,89.03
2019-03-21T00:23:27.094Z,80.23
2019-03-21T00:25:56.386Z,81.33
2019-03-21T00:28:24.776Z,94.30
2019-03-21T00:30:53.222Z,91.03
2019-03-21T00:33:21.622Z,90.33
2019-03-21T00:35:50.014Z,83.73
2019-03-21T00:38:18.312Z,78.10
2019-03-21T00:40:46.688Z,94.60
2019-03-21T00:43:15.018Z,90.33
2019-03-21T00:45:43.392Z,84.73
2019-03-21T00:48:12.618Z,89.70
2019-03-21T00:50:41.016Z,87.40
2019-03-21T00:53:09.493Z,97.37
2019-03-21T00:55:38.164Z,90.60
2019-03-21T00:58:06.555Z,100.73
2019-03-21T01:00:38.752Z,91.87
2019-03-21T01:03:07.515Z,109.30
2019-03-21T01:05:35.897Z,105.37
2019-03-21T01:08:04.260Z,119.80
2019-03-21T01:10:33.721Z,120.07
2019-03-21T01:13:02.094Z,105.43
2019-03-21T01:15:30.675Z,110.47
2019-03-21T01:17:59.014Z,107.87
2019-03-21T01:20:27.459Z,105.30
2019-03-21T01:22:55.952Z,108.23
2019-03-21T01:25:26.293Z,92.43
2019-03-21T01:27:54.631Z,90.90
2019-03-21T01:30:23.000Z,101.13
2019-03-21T01:32:51.426Z,104.10
2019-03-21T01:35:19.810Z,106.03
2019-03-21T01:37:48.137Z,104.57
2019-03-21T01:40:17.983Z,99.73
2019-03-21T01:42:46.359Z,103.13
2019-03-21T01:45:15.918Z,103.93
2019-03-21T01:47:44.253Z,90.87
2019-03-21T01:50:13.385Z,98.00
2019-03-21T01:52:41.776Z,113.23
2019-03-21T01:55:11.462Z,104.50
2019-03-21T01:57:39.893Z,91.73
2019-03-21T02:00:09.968Z,103.30
2019-03-21T02:02:38.359Z,102.97
2019-03-21T02:05:07.174Z,92.90
2019-03-21T02:07:35.593Z,95.53
2019-03-21T02:10:04.418Z,104.57
2019-03-21T02:12:32.781Z,101.30
2019-03-21T02:15:02.053Z,96.67
2019-03-21T02:17:30.356Z,108.00
2019-03-21T02:19:58.741Z,109.47
2019-03-21T02:22:27.124Z,106.23
2019-03-21T02:24:55.620Z,105.47
2019-03-21T02:27:23.964Z,107.47
2019-03-21T02:29:52.333Z,116.20
2019-03-21T02:32:20.686Z,106.83
2019-03-21T02:34:49.182Z,101.87
2019-03-21T02:37:18.519Z,103.23
2019-03-21T02:39:58.650Z,112.83
2019-03-21T02:42:17.113Z,114.83
2019-03-21T02:44:45.509Z,121.80
2019-03-21T02:47:13.877Z,114.17
2019-03-21T02:49:42.255Z,106.80
2019-03-21T02:52:10.610Z,120.20
2019-03-21T02:54:38.989Z,125.17
2019-03-21T02:57:07.403Z,118.83
2019-03-21T02:59:35.796Z,123.90
2019-03-21T03:02:04.203Z,115.70
2019-03-21T03:04:32.640Z,125.90
2019-03-21T03:07:02.112Z,128.47
2019-03-21T03:09:30.566Z,121.80
2019-03-21T03:11:58.966Z,134.93
2019-03-21T03:14:27.368Z,116.57
2019-03-21T03:16:55.742Z,135.20
2019-03-21T03:19:24.142Z,134.17
2019-03-21T03:21:52.652Z,122.90
2019-03-21T03:24:22.349Z,125.40
2019-03-21T03:26:50.724Z,124.87
2019-03-21T03:29:19.060Z,111.10
2019-03-21T03:31:47.445Z,116.67
2019-03-21T03:34:15.773Z,119.50
2019-03-21T03:36:44.167Z,133.83
2019-03-21T03:39:12.821Z,140.27
2019-03-21T03:41:41.489Z,134.87
2019-03-21T03:44:09.818Z,131.33
2019-03-21T03:46:38.250Z,127.53
2019-03-21T03:49:06.616Z,136.77
2019-03-21T03:51:34.959Z,133.73
2019-03-21T03:54:03.295Z,126.33
2019-03-21T03:56:31.750Z,132.97
2019-03-21T03:59:00.552Z,129.07
2019-03-21T04:01:29.172Z,129.17
2019-03-21T04:03:57.559Z,126.83
2019-03-21T04:06:26.003Z,118.90
2019-03-21T04:08:54.377Z,121.03
2019-03-21T04:11:22.949Z,115.63
2019-03-21T04:13:51.313Z,120.33
2019-03-21T04:16:20.112Z,118.47
2019-03-21T04:18:48.467Z,114.30
2019-03-21T04:21:16.825Z,110.73
2019-03-21T04:23:45.167Z,114.90
2019-03-21T04:26:15.579Z,114.07
2019-03-21T04:28:44.079Z,117.33
2019-03-21T04:31:12.454Z,117.63
2019-03-21T04:33:41.053Z,115.40
2019-03-21T04:36:09.391Z,123.33
2019-03-21T04:38:37.798Z,122.33
2019-03-21T04:41:07.265Z,119.47
2019-03-21T04:43:35.632Z,110.23
2019-03-21T04:46:04.943Z,103.17
2019-03-21T04:48:33.286Z,111.43
2019-03-21T04:51:01.627Z,103.20
2019-03-21T04:53:30.144Z,97.90
2019-03-21T04:55:58.491Z,99.27
2019-03-21T04:58:26.843Z,104.40
2019-03-21T05:00:55.304Z,95.07
2019-03-21T05:03:23.916Z,108.20
2019-03-21T05:05:52.283Z,94.53
2019-03-21T05:08:20.630Z,111.63
2019-03-21T05:10:49.079Z,103.40
2019-03-21T05:15:09.722Z,100.17
2019-03-21T05:17:39.430Z,104.77
2019-03-21T05:20:11.222Z,96.37
2019-03-21T05:22:40.969Z,103.67
2019-03-21T05:25:11.582Z,94.27
2019-03-21T05:27:41.293Z,95.77
2019-03-21T05:30:17.891Z,84.87
2019-03-21T05:32:47.715Z,93.00
2019-03-21T05:35:17.446Z,90.60
2019-03-21T05:37:47.288Z,86.70
2019-03-21T05:40:21.573Z,77.03
2019-03-21T05:43:00.840Z,90.83
2019-03-21T05:45:30.542Z,85.23
2019-03-21T05:48:00.236Z,88.87
2019-03-21T05:50:29.997Z,89.93
2019-03-21T05:52:59.689Z,84.13
2019-03-21T05:55:29.426Z,81.33
2019-03-21T05:57:59.105Z,79.00
2019-03-21T06:00:31.942Z,83.03
2019-03-21T06:03:02.171Z,84.90
2019-03-21T06:05:32.426Z,89.20
2019-03-21T06:08:14.544Z,85.73
2019-03-21T06:10:44.436Z,82.63
2019-03-21T06:13:14.176Z,78.13
2019-03-21T06:15:43.980Z,81.63
2019-03-21T06:18:48.583Z,84.70
2019-03-21T06:21:31.918Z,80.47
2019-03-21T06:24:13.470Z,82.20
2019-03-21T06:26:50.757Z,82.67
2019-03-21T06:29:20.486Z,80.73
2019-03-21T06:31:50.289Z,79.27
2019-03-21T06:34:20.040Z,73.87
2019-03-21T06:36:49.758Z,83.80
2019-03-21T06:39:19.463Z,78.83
2019-03-21T06:41:49.185Z,87.90
2019-03-21T06:44:19.014Z,83.93
2019-03-21T06:46:49.942Z,82.47
2019-03-21T06:49:19.739Z,86.87
2019-03-21T06:51:49.493Z,82.30
2019-03-21T06:54:19.231Z,75.43
2019-03-21T06:56:49.471Z,73.23
2019-03-21T06:59:19.193Z,77.60
2019-03-21T07:01:48.927Z,66.03
2019-03-21T07:04:18.791Z,75.00
2019-03-21T07:06:48.467Z,68.70
2019-03-21T07:09:18.208Z,72.87
2019-03-21T07:11:47.929Z,73.93
2019-03-21T07:14:17.689Z,70.13
2019-03-21T07:16:47.520Z,70.60
2019-03-21T07:19:17.199Z,74.07
2019-03-21T07:21:46.947Z,74.40
2019-03-21T07:24:16.627Z,70.70
2019-03-21T07:26:46.308Z,72.27
2019-03-21T07:29:16.040Z,67.57
2019-03-21T07:31:45.734Z,73.73
2019-03-21T07:34:15.426Z,66.37
2019-03-21T07:36:45.167Z,71.53
2019-03-21T07:39:14.870Z,68.70
2019-03-21T07:41:44.739Z,68.67
2019-03-21T07:44:14.423Z,64.30
2019-03-21T07:46:44.561Z,68.03
2019-03-21T07:49:14.348Z,65.77
2019-03-21T07:51:45.298Z,64.93
2019-03-21T07:54:15.370Z,60.80
2019-03-21T07:56:45.108Z,61.27
2019-03-21T07:59:14.801Z,64.97
2019-03-21T08:01:44.486Z,58.90
2019-03-21T08:04:14.222Z,61.93
2019-03-21T08:06:43.922Z,63.20
2019-03-21T08:09:13.762Z,59.77
2019-03-21T08:11:43.508Z,61.07
2019-03-21T08:14:13.201Z,61.73
2019-03-21T08:16:43.010Z,55.23
2019-03-21T08:19:12.735Z,58.20
2019-03-21T08:21:42.473Z,61.83
2019-03-21T08:24:12.180Z,67.50
2019-03-21T08:26:41.958Z,68.20
2019-03-21T08:29:11.699Z,65.90
2019-03-21T08:31:41.414Z,67.00
2019-03-21T08:34:11.138Z,66.83
2019-03-21T08:36:40.929Z,68.57
2019-03-21T08:39:10.663Z,69.87
2019-03-21T08:41:40.618Z,73.70
2019-03-21T08:44:10.349Z,71.50
2019-03-21T08:46:40.137Z,65.57
2019-03-21T08:49:09.921Z,65.17
2019-03-21T08:51:39.691Z,64.63
2019-03-21T08:54:09.364Z,67.70
2019-03-21T08:56:39.191Z,70.27
2019-03-21T08:59:08.874Z,63.50
2019-03-21T09:01:38.653Z,64.43
2019-03-21T09:04:08.375Z,69.10
2019-03-21T09:06:38.057Z,69.57
2019-03-21T09:09:10.034Z,64.30
2019-03-21T09:11:40.677Z,65.97
2019-03-21T09:14:10.362Z,69.27
2019-03-21T09:16:40.092Z,67.13
2019-03-21T09:19:09.837Z,68.67
2019-03-21T09:21:39.493Z,66.07
2019-03-21T09:24:09.239Z,60.57
2019-03-21T09:26:38.956Z,67.27
2019-03-21T09:29:08.617Z,66.53
2019-03-21T09:31:38.335Z,66.53
2019-03-21T09:34:08.105Z,66.10
2019-03-21T09:36:37.825Z,68.47
2019-03-21T09:39:08.708Z,66.23
2019-03-21T09:41:38.386Z,67.07
2019-03-21T09:44:08.239Z,68.73
2019-03-21T09:46:38.085Z,62.33
2019-03-21T09:49:10.897Z,66.40
2019-03-21T09:51:40.629Z,64.20
2019-03-21T09:54:10.466Z,59.33
2019-03-21T09:56:40.773Z,65.63
2019-03-21T09:59:10.454Z,65.27
2019-03-21T10:01:40.189Z,60.73
2019-03-21T10:04:09.986Z,56.77
2019-03-21T10:06:39.686Z,56.23
2019-03-21T10:09:09.440Z,54.53
2019-03-21T10:11:39.156Z,50.87
2019-03-21T10:14:08.886Z,54.17
2019-03-21T10:16:38.633Z,51.47
2019-03-21T10:19:08.391Z,54.87
2019-03-21T10:21:43.220Z,48.80
2019-03-21T10:24:09.895Z,55.53
2019-03-21T10:26:39.695Z,47.87
2019-03-21T10:29:09.425Z,46.93
2019-03-21T10:31:39.168Z,47.87
2019-03-21T10:34:09.009Z,47.13
2019-03-21T10:36:38.749Z,50.47
2019-03-21T10:39:08.901Z,50.87
2019-03-21T10:41:38.626Z,42.87
2019-03-21T10:44:08.341Z,43.77
2019-03-21T10:46:38.366Z,41.37
2019-03-21T10:49:08.042Z,43.63
2019-03-21T10:51:37.812Z,43.97
2019-03-21T10:54:07.547Z,43.67
2019-03-21T10:56:37.360Z,48.20
2019-03-21T10:59:07.090Z,44.37
2019-03-21T11:01:36.790Z,41.63
2019-03-21T11:04:06.486Z,49.67
2019-03-21T11:06:36.227Z,48.33
2019-03-21T11:09:08.955Z,48.27
2019-03-21T11:11:38.706Z,46.00
2019-03-21T11:14:08.429Z,48.37
2019-03-21T11:16:38.254Z,45.43
2019-03-21T11:19:07.951Z,48.57
2019-03-21T11:21:37.667Z,47.53
2019-03-21T11:24:07.358Z,45.50
2019-03-21T11:26:37.097Z,46.03
2019-03-21T11:29:06.782Z,48.87
2019-03-21T11:31:36.751Z,46.90
2019-03-21T11:34:06.444Z,46.03
2019-03-21T11:36:38.549Z,46.77
2019-03-21T11:39:08.979Z,43.07
2019-03-21T11:41:39.002Z,42.97
2019-03-21T11:44:08.737Z,47.60
2019-03-21T11:46:38.591Z,44.43
2019-03-21T11:49:08.278Z,45.83
2019-03-21T11:51:37.990Z,44.50
2019-03-21T11:54:07.737Z,43.30
2019-03-21T11:56:37.421Z,45.53
2019-03-21T11:59:07.127Z,40.70
2019-03-21T12:01:36.987Z,38.17
2019-03-21T12:04:06.944Z,41.87
2019-03-21T12:06:36.720Z,39.63
2019-03-21T12:09:07.892Z,35.83
2019-03-21T12:11:37.709Z,43.17
2019-03-21T12:14:07.447Z,41.23
2019-03-21T12:16:37.208Z,35.97
2019-03-21T12:19:06.987Z,49.60
2019-03-21T12:21:36.689Z,42.43
2019-03-21T12:24:06.446Z,44.70
2019-03-21T12:26:36.189Z,39.63
2019-03-21T12:29:05.986Z,38.50
2019-03-21T12:31:35.824Z,39.00
2019-03-21T12:34:05.522Z,41.70
2019-03-21T12:36:35.238Z,42.97
2019-03-21T12:39:08.045Z,31.27
2019-03-21T12:41:37.798Z,34.40
2019-03-21T12:44:08.016Z,36.47
2019-03-21T12:46:37.729Z,33.27
2019-03-21T12:49:07.607Z,33.73
2019-03-21T12:51:37.402Z,33.03
2019-03-21T12:54:07.146Z,33.30
2019-03-21T12:56:36.940Z,31.60
2019-03-21T12:59:06.620Z,33.40
2019-03-21T13:01:36.355Z,34.10
2019-03-21T13:04:06.113Z,34.33
2019-03-21T13:06:36.103Z,32.13
2019-03-21T13:09:07.784Z,38.13
2019-03-21T13:11:37.530Z,39.87
2019-03-21T13:14:07.261Z,34.83
2019-03-21T13:16:36.962Z,37.27
2019-03-21T13:19:06.690Z,40.17
2019-03-21T13:21:36.744Z,38.87
2019-03-21T13:24:06.484Z,41.87
2019-03-21T13:26:36.180Z,40.17
2019-03-21T13:29:06.023Z,40.30
2019-03-21T13:31:35.712Z,39.27
2019-03-21T13:34:05.417Z,39.70
2019-03-21T13:36:35.163Z,40.73
2019-03-21T13:39:06.537Z,43.47
2019-03-21T13:41:36.388Z,44.03
2019-03-21T13:44:06.100Z,43.07
2019-03-21T13:46:35.812Z,41.23
2019-03-21T13:49:06.111Z,41.67
2019-03-21T13:51:35.960Z,40.53
2019-03-21T13:54:05.692Z,40.10
2019-03-21T13:56:38.294Z,37.80
2019-03-21T13:59:06.865Z,40.93
2019-03-21T14:01:36.606Z,38.67
2019-03-21T14:04:06.304Z,41.13
2019-03-21T14:06:36.018Z,40.77
2019-03-21T14:09:08.026Z,38.10
2019-03-21T14:11:37.957Z,37.00
2019-03-21T14:14:07.655Z,42.53
2019-03-21T14:16:37.361Z,35.27
2019-03-21T14:19:07.099Z,33.17
2019-03-21T14:21:36.851Z,36.80
2019-03-21T14:24:09.199Z,38.43
2019-03-21T14:26:38.896Z,35.87
2019-03-21T14:29:12.882Z,36.43
2019-03-21T14:31:40.042Z,38.53
2019-03-21T14:34:09.778Z,39.20
2019-03-21T14:36:39.538Z,43.07
2019-03-21T14:39:09.273Z,41.90
2019-03-21T14:41:39.111Z,38.27
2019-03-21T14:44:08.935Z,40.03
2019-03-21T14:46:38.784Z,38.03
2019-03-21T14:49:08.842Z,42.33
2019-03-21T14:51:38.615Z,41.13
2019-03-21T14:54:08.401Z,39.27
2019-03-21T14:56:38.166Z,41.43
2019-03-21T14:59:07.987Z,41.70
2019-03-21T15:01:37.739Z,40.77
2019-03-21T15:04:08.006Z,42.50
2019-03-21T15:06:37.768Z,41.27
2019-03-21T15:09:08.222Z,41.83
2019-03-21T15:11:38.008Z,38.80
2019-03-21T15:14:07.886Z,38.60
2019-03-21T15:16:37.575Z,41.53
2019-03-21T15:19:07.260Z,41.83
2019-03-21T15:21:36.965Z,42.30
2019-03-21T15:24:06.755Z,42.57
2019-03-21T15:26:36.481Z,41.33
2019-03-21T15:29:06.426Z,42.07
2019-03-21T15:31:36.141Z,44.20
2019-03-21T15:34:06.157Z,41.90
2019-03-21T15:36:35.885Z,43.80
2019-03-21T15:39:08.673Z,41.37
2019-03-21T15:41:38.880Z,45.30
2019-03-21T15:44:08.625Z,46.47
2019-03-21T15:46:38.916Z,45.83
2019-03-21T15:49:08.597Z,42.63
2019-03-21T15:51:38.313Z,48.27
2019-03-21T15:54:08.421Z,51.10
2019-03-21T15:56:38.158Z,50.60
2019-03-21T15:59:07.835Z,53.50
2019-03-21T16:01:37.570Z,52.40
2019-03-21T16:04:07.253Z,53.20
2019-03-21T16:06:36.953Z,53.00
2019-03-21T16:09:08.918Z,51.77
2019-03-21T16:11:38.722Z,56.40
2019-03-21T16:14:08.521Z,50.80
2019-03-21T16:16:38.366Z,57.07
2019-03-21T16:19:08.099Z,54.57
2019-03-21T16:21:37.830Z,53.00
2019-03-21T16:24:07.600Z,57.47
2019-03-21T16:26:37.346Z,55.17
2019-03-21T16:29:09.962Z,49.80
2019-03-21T16:31:38.525Z,57.73
2019-03-21T16:34:08.312Z,56.37
2019-03-21T16:36:38.078Z,52.30
2019-03-21T16:39:08.759Z,55.40
2019-03-21T16:41:38.848Z,58.37
2019-03-21T16:44:08.587Z,54.13
2019-03-21T16:46:38.454Z,57.07
2019-03-21T16:49:08.195Z,57.70
2019-03-21T16:51:37.899Z,59.87
2019-03-21T16:54:16.578Z,58.07
2019-03-21T16:56:39.086Z,62.13
2019-03-21T16:59:08.831Z,59.33
2019-03-21T17:01:38.641Z,59.60
2019-03-21T17:04:08.510Z,62.37
2019-03-21T17:06:38.226Z,61.10
2019-03-21T17:09:09.572Z,61.63
2019-03-21T17:11:39.282Z,66.30
2019-03-21T17:14:08.991Z,65.70
2019-03-21T17:16:38.747Z,66.40
2019-03-21T17:19:08.455Z,69.30
2019-03-21T17:21:38.508Z,65.27
2019-03-21T17:24:08.208Z,63.07
2019-03-21T17:26:37.984Z,69.30
2019-03-21T17:29:07.755Z,64.50
2019-03-21T17:31:37.462Z,64.90
2019-03-21T17:34:07.218Z,65.07
2019-03-21T17:36:36.950Z,69.53
2019-03-21T17:39:09.022Z,69.33
2019-03-21T17:41:38.788Z,61.90
2019-03-21T17:44:08.516Z,54.20
2019-03-21T17:46:38.454Z,51.87
2019-03-21T17:49:08.179Z,51.80
2019-03-21T17:51:38.097Z,55.20
2019-03-21T17:54:07.843Z,48.63
2019-03-21T17:56:37.717Z,48.60
2019-03-21T17:59:07.447Z,50.03
2019-03-21T18:01:37.296Z,51.97
2019-03-21T18:04:07.093Z,51.27
2019-03-21T18:06:36.856Z,49.83
2019-03-21T18:09:08.165Z,51.63
2019-03-21T18:11:38.021Z,53.10
2019-03-21T18:14:07.804Z,52.07
2019-03-21T18:16:37.526Z,55.73
2019-03-21T18:19:07.245Z,51.93
2019-03-21T18:21:36.980Z,54.77
2019-03-21T18:24:06.689Z,53.73
2019-03-21T18:26:37.635Z,57.37
2019-03-21T18:29:07.563Z,53.97
2019-03-21T18:31:37.328Z,56.10
2019-03-21T18:34:07.113Z,53.30
2019-03-21T18:36:37.051Z,59.30
2019-03-21T18:39:08.892Z,59.13
2019-03-21T18:41:38.579Z,59.97
2019-03-21T18:44:08.338Z,57.73
2019-03-21T18:46:38.084Z,60.10
2019-03-21T18:49:07.992Z,55.03
2019-03-21T18:51:37.703Z,62.90
2019-03-21T18:54:07.556Z,58.20
2019-03-21T18:56:37.286Z,57.50
2019-03-21T18:59:07.039Z,61.87
2019-03-21T19:01:36.782Z,69.60
2019-03-21T19:04:06.693Z,67.07
2019-03-21T19:06:36.448Z,74.13
2019-03-21T19:09:08.476Z,71.07
2019-03-21T19:11:38.359Z,68.67
2019-03-21T19:14:08.138Z,74.30
2019-03-21T19:16:37.917Z,74.70
2019-03-21T19:19:08.054Z,76.93
2019-03-21T19:21:38.746Z,74.67
2019-03-21T19:24:11.353Z,78.43
2019-03-21T19:26:40.163Z,76.27
2019-03-21T19:29:10.082Z,80.70
2019-03-21T19:31:39.928Z,82.03
2019-03-21T19:34:10.186Z,79.80
2019-03-21T19:36:40.336Z,81.23
2019-03-21T19:39:10.469Z,83.00
2019-03-21T19:41:40.274Z,84.70
2019-03-21T19:44:10.179Z,85.53
2019-03-21T19:46:40.697Z,87.37
2019-03-21T19:49:10.484Z,82.07
2019-03-21T19:51:40.579Z,89.40
2019-03-21T19:54:12.739Z,84.27
2019-03-21T19:56:42.543Z,94.83
2019-03-21T19:59:12.680Z,93.80
2019-03-21T20:01:42.562Z,83.13
2019-03-21T20:04:13.348Z,82.57
2019-03-21T20:06:45.025Z,93.87
2019-03-21T20:09:15.902Z,83.03
2019-03-21T20:11:46.042Z,90.77
2019-03-21T20:14:16.326Z,86.70
2019-03-21T20:16:46.137Z,83.50
2019-03-21T20:19:15.929Z,80.07
2019-03-21T20:21:48.355Z,89.57
2019-03-21T20:24:19.110Z,92.93
2019-03-21T20:26:49.242Z,93.10
2019-03-21T20:29:19.014Z,92.20
2019-03-21T20:31:48.833Z,91.37
2019-03-21T20:34:18.620Z,92.07
2019-03-21T20:36:48.966Z,93.10
2019-03-21T20:39:18.988Z,95.77
2019-03-21T20:41:48.871Z,92.87
2019-03-21T20:44:19.730Z,92.93
2019-03-21T20:46:50.483Z,94.03
2019-03-21T20:49:21.152Z,90.33
2019-03-21T20:51:50.892Z,93.40
2019-03-21T20:54:20.969Z,93.70
2019-03-21T20:56:50.789Z,90.57
2019-03-21T20:59:20.614Z,91.73
2019-03-21T21:02:01.912Z,92.83
2019-03-21T21:04:22.487Z,94.73
2019-03-21T21:06:52.450Z,91.63
2019-03-21T21:09:22.367Z,91.47
2019-03-21T21:11:52.263Z,85.73
2019-03-21T21:14:22.360Z,88.20
2019-03-21T21:16:52.303Z,92.63
2019-03-21T21:19:22.103Z,94.00
2019-03-21T21:21:51.831Z,100.77
2019-03-21T21:24:21.891Z,94.87
2019-03-21T21:26:51.642Z,102.37
2019-03-21T21:29:21.419Z,102.97
2019-03-21T21:31:51.164Z,104.90
2019-03-21T21:34:21.335Z,103.70
2019-03-21T21:36:51.319Z,96.60
2019-03-21T21:39:21.054Z,106.97
2019-03-21T21:41:50.762Z,101.40
2019-03-21T21:44:20.510Z,100.50
2019-03-21T21:46:50.212Z,104.40
2019-03-21T21:49:20.083Z,103.03
2019-03-21T21:51:49.771Z,104.97
2019-03-21T21:54:19.508Z,102.90
2019-03-21T21:56:49.254Z,97.13
2019-03-21T21:59:19.055Z,99.43
2019-03-21T22:01:48.798Z,98.43
2019-03-21T22:04:18.652Z,98.97
2019-03-21T22:06:48.358Z,94.80
2019-03-21T22:09:18.065Z,98.03
2019-03-21T22:11:47.785Z,99.77
2019-03-21T22:14:17.511Z,98.67
2019-03-21T22:16:47.268Z,101.40
2019-03-21T22:19:17.068Z,93.33
2019-03-21T22:21:46.829Z,98.83
2019-03-21T22:24:16.622Z,113.00
2019-03-21T22:26:46.419Z,111.07
2019-03-21T22:29:16.252Z,103.20
2019-03-21T22:31:46.118Z,111.87
2019-03-21T22:34:15.933Z,100.13
2019-03-21T22:36:49.533Z,103.23
2019-03-21T22:39:17.256Z,104.57
2019-03-21T22:41:46.988Z,104.57
2019-03-21T22:44:16.696Z,103.00
2019-03-21T22:46:46.428Z,99.73
2019-03-21T22:49:16.239Z,103.67
2019-03-21T22:51:45.941Z,105.03
2019-03-21T22:54:15.665Z,106.07
2019-03-21T22:56:45.379Z,107.20
2019-03-21T22:59:15.096Z,106.83
2019-03-21T23:01:44.793Z,107.13
2019-03-21T23:04:14.503Z,107.53
2019-03-21T23:06:44.184Z,114.47
2019-03-21T23:09:13.906Z,115.47
2019-03-21T23:11:43.774Z,114.83
2019-03-21T23:14:13.472Z,118.87
2019-03-21T23:16:43.165Z,119.87
2019-03-21T23:19:12.907Z,122.53
2019-03-21T23:21:42.621Z,122.27
2019-03-21T23:24:12.602Z,125.20
2019-03-21T23:26:52.448Z,133.97
2019-03-21T23:29:13.676Z,149.83
2019-03-21T23:31:43.369Z,156.77
2019-03-21T23:34:13.086Z,149.33
2019-03-21T23:36:44.880Z,161.53
2019-03-21T23:39:14.618Z,168.83
2019-03-21T23:41:44.314Z,167.13
2019-03-21T23:44:14.045Z,169.83
2019-03-21T23:46:43.875Z,166.77
2019-03-21T23:49:13.572Z,150.40
2019-03-21T23:51:43.351Z,149.10
2019-03-21T23:54:13.125Z,148.70
2019-03-21T23:56:42.889Z,143.73
2019-03-21T23:59:12.827Z,147.30
